Time;durP1;ratioP1;P1;durP2;ratioP2;P2;SDS_P1;SDS_P2;PMS_P1;PMS_P2;Temp;Humidity;BMP_temperature;BMP_pressure;BME280_temperature;BME280_humidity;BME280_pressure;Samples;Min_cycle;Max_cycle;Signal;HPM_P1;HPM_P2
2022/09/10 11:40:52;;;;;;;12.20;7.40;;;20.40;99.90;;;;;;6252040;22;1623311;-66
2022/09/10 11:44:11;;;;;;;1.73;1.57;;;20.40;99.90;;;;;;6275724;22;20166;-66
2022/09/10 11:47:03;;;;;;;1.13;0.90;;;20.50;99.90;;;;;;6124054;23;20336;-66
2022/09/10 11:49:52;;;;;;;1.17;1.17;;;20.90;99.90;;;;;;6261622;22;20384;-66
2022/09/10 11:52:20;;;;;;;2.70;1.10;;;21.20;99.90;;;;;;6246255;23;20359;-70
2022/09/10 11:54:46;;;;;;;2.23;2.13;;;21.50;99.90;;;;;;6245876;23;20374;-70
2022/09/10 11:57:30;;;;;;;1.17;0.70;;;21.60;99.90;;;;;;6245949;23;20352;-69
2022/09/10 12:00:15;;;;;;;2.77;0.70;;;21.70;99.90;;;;;;6245288;22;20363;-68
2022/09/10 12:02:56;;;;;;;0.80;0.80;;;21.60;99.90;;;;;;6245565;23;20408;-67
2022/09/10 12:05:44;;;;;;;0.90;0.60;;;21.40;99.90;;;;;;6244874;23;20786;-66
2022/09/10 12:08:39;;;;;;;1.47;0.70;;;21.20;99.90;;;;;;6244667;23;20367;-67
2022/09/10 12:11:26;;;;;;;1.10;1.00;;;20.70;99.90;;;;;;6245043;23;20353;-66
2022/09/10 12:13:51;;;;;;;0.87;0.87;;;20.00;99.90;;;;;;6218376;23;20376;-68
2022/09/10 12:16:31;;;;;;;1.47;1.37;;;19.60;99.90;;;;;;6244778;23;20846;-66
2022/09/10 12:18:58;;;;;;;0.90;0.57;;;19.40;99.90;;;;;;6217918;23;20171;-67
2022/09/10 12:21:23;;;;;;;1.10;0.77;;;19.30;99.90;;;;;;6244838;23;20408;-67
2022/09/10 12:23:49;;;;;;;4.00;0.80;;;19.40;99.90;;;;;;6245542;23;20427;-72
2022/09/10 12:26:18;;;;;;;0.80;0.80;;;19.60;99.90;;;;;;6245296;23;20474;-67
2022/09/10 12:28:47;;;;;;;0.60;0.60;;;19.90;99.90;;;;;;6244975;22;20608;-70
2022/09/10 12:31:15;;;;;;;2.10;1.03;;;20.20;99.90;;;;;;6218551;23;20421;-69
2022/09/10 12:33:43;;;;;;;0.77;0.77;;;20.40;99.90;;;;;;6245005;23;20372;-67
2022/09/10 12:36:33;;;;;;;2.10;0.80;;;20.40;99.90;;;;;;6218682;23;20687;-68
2022/09/10 12:39:18;;;;;;;1.17;0.90;;;20.60;99.90;;;;;;6217648;23;20749;-69
2022/09/10 12:41:44;;;;;;;0.73;0.67;;;20.70;99.90;;;;;;6245499;23;20438;-67
2022/09/10 12:44:41;;;;;;;1.43;0.70;;;20.90;99.90;;;;;;6246209;23;20406;-70
2022/09/10 12:47:15;;;;;;;1.03;0.80;;;20.90;99.90;;;;;;6244961;23;20144;-67
2022/09/10 12:49:54;;;;;;;1.50;1.00;;;20.90;99.90;;;;;;6244827;22;20422;-69
2022/09/10 12:52:34;;;;;;;0.80;0.80;;;20.90;99.90;;;;;;6245071;23;20326;-68
2022/09/10 12:55:35;;;;;;;0.73;0.60;;;21.00;99.90;;;;;;6245750;23;20344;-65
2022/09/10 12:58:27;;;;;;;1.63;0.90;;;21.10;99.90;;;;;;6246742;23;20726;-68
2022/09/10 13:00:56;;;;;;;1.17;0.90;;;21.20;99.90;;;;;;6247440;23;20338;-70
2022/09/10 13:03:26;;;;;;;0.80;0.80;;;21.30;99.90;;;;;;6247484;23;20715;-68
2022/09/10 13:05:56;;;;;;;0.90;0.90;;;21.40;99.90;;;;;;6248065;23;20366;-67
2022/09/10 13:08:27;;;;;;;0.90;0.90;;;21.60;99.90;;;;;;6246912;22;20349;-67
2022/09/10 13:10:56;;;;;;;0.87;0.80;;;21.80;99.90;;;;;;6247468;23;20433;-67
2022/09/10 13:13:55;;;;;;;0.80;0.70;;;21.80;99.90;;;;;;6244577;23;20364;-67
2022/09/10 13:16:26;;;;;;;1.70;0.87;;;21.80;99.90;;;;;;6245298;23;20356;-67
2022/09/10 13:19:12;;;;;;;0.80;0.80;;;21.80;99.90;;;;;;6244548;22;20951;-69
2022/09/10 13:21:43;;;;;;;0.83;0.83;;;21.80;99.90;;;;;;6244870;23;20372;-67
2022/09/10 13:24:34;;;;;;;1.50;0.83;;;21.60;99.90;;;;;;6244964;23;20360;-66
2022/09/10 13:27:15;;;;;;;0.70;0.70;;;21.50;99.90;;;;;;6246327;23;20345;-66
2022/09/10 13:29:45;;;;;;;1.13;1.03;;;21.40;99.90;;;;;;6247255;22;20429;-67
2022/09/10 13:32:42;;;;;;;0.90;0.90;;;21.40;99.90;;;;;;6247805;23;20385;-66
2022/09/10 13:35:16;;;;;;;1.53;0.80;;;21.40;99.90;;;;;;6247542;23;20762;-66
2022/09/10 13:37:42;;;;;;;1.00;1.00;;;21.30;99.90;;;;;;6246599;23;20357;-66
2022/09/10 13:40:27;;;;;;;0.87;0.70;;;21.40;99.90;;;;;;6247225;22;20509;-67
2022/09/10 13:43:29;;;;;;;1.13;0.90;;;21.40;99.90;;;;;;6246675;23;20358;-65
2022/09/10 13:46:03;;;;;;;0.60;0.60;;;21.40;99.90;;;;;;6245971;23;20349;-66
2022/09/10 13:48:44;;;;;;;1.70;0.73;;;21.60;99.90;;;;;;6247109;22;20138;-68
2022/09/10 13:51:16;;;;;;;1.17;0.93;;;21.70;99.90;;;;;;6246957;23;20402;-66
2022/09/10 13:53:45;;;;;;;0.80;0.80;;;21.70;99.90;;;;;;6247387;23;20357;-64
2022/09/10 13:56:18;;;;;;;2.37;2.17;;;21.80;99.90;;;;;;6247194;23;20378;-64
2022/09/10 13:58:53;;;;;;;3.60;2.00;;;21.80;99.90;;;;;;6247032;22;20846;-64
2022/09/10 14:01:19;;;;;;;1.40;1.30;;;21.70;99.90;;;;;;6247327;23;20367;-62
2022/09/10 14:03:45;;;;;;;1.20;1.10;;;21.60;99.90;;;;;;6219932;23;20486;-64
2022/09/10 14:06:17;;;;;;;1.47;1.27;;;21.40;99.90;;;;;;6246534;23;20151;-62
2022/09/10 14:08:55;;;;;;;2.77;2.43;;;21.30;99.90;;;;;;6246455;22;20249;-61
2022/09/10 14:11:33;;;;;;;1.73;1.23;;;21.10;99.90;;;;;;6246359;23;20409;-64
2022/09/10 14:14:05;;;;;;;1.90;1.17;;;20.90;99.90;;;;;;6246569;23;20331;-63
2022/09/10 14:16:42;;;;;;;1.00;1.00;;;20.80;99.90;;;;;;6219599;23;20395;-63
2022/09/10 14:19:17;;;;;;;1.37;1.07;;;20.70;99.90;;;;;;6246120;22;20358;-63
2022/09/10 14:21:47;;;;;;;0.93;0.87;;;;;;;;;;6246443;23;20459;-62
2022/09/10 14:24:52;;;;;;;0.90;0.90;;;20.60;99.90;;;;;;6246426;23;20367;-61
2022/09/10 14:27:26;;;;;;;1.03;0.90;;;19.70;99.90;;;;;;6095645;23;20388;-62
2022/09/10 14:29:55;;;;;;;4.43;1.47;;;19.10;99.90;;;;;;6094716;23;20396;-62
2022/09/10 14:32:28;;;;;;;3.43;2.40;;;18.70;99.90;;;;;;6095201;23;20362;-62
2022/09/10 14:34:54;;;;;;;1.30;1.30;;;18.30;99.90;;;;;;6095474;23;20402;-63
2022/09/10 14:37:33;;;;;;;4.00;1.77;;;17.90;99.90;;;;;;6095295;23;20374;-63
2022/09/10 14:40:19;;;;;;;2.50;0.90;;;17.80;99.90;;;;;;6094409;23;20808;-64
2022/09/10 14:42:47;;;;;;;2.27;0.90;;;17.60;99.90;;;;;;6095302;23;20820;-62
2022/09/10 14:45:41;;;;;;;2.63;1.27;;;17.60;99.90;;;;;;6094467;23;20411;-62
2022/09/10 14:48:34;;;;;;;0.90;0.90;;;17.60;99.90;;;;;;6094733;23;20463;-63
2022/09/10 14:51:11;;;;;;;1.10;1.00;;;17.70;99.90;;;;;;6094427;23;20430;-63
2022/09/10 14:53:38;;;;;;;0.80;0.80;;;17.70;99.90;;;;;;6095202;23;20376;-63
2022/09/10 14:56:09;;;;;;;0.90;0.90;;;17.70;99.90;;;;;;6094923;23;20410;-62
2022/09/10 14:58:35;;;;;;;0.90;0.83;;;17.70;99.90;;;;;;6204050;22;20376;-62
2022/09/10 15:01:01;;;;;;;0.90;0.90;;;17.80;99.90;;;;;;6246234;23;20816;-62
2022/09/10 15:03:26;;;;;;;3.03;1.27;;;17.90;99.90;;;;;;6246567;23;20372;-62
2022/09/10 15:05:52;;;;;;;1.40;1.30;;;18.00;99.90;;;;;;6245992;23;20411;-62
2022/09/10 15:08:17;;;;;;;1.70;1.50;;;18.20;99.90;;;;;;6245797;23;20149;-64
2022/09/10 15:10:43;;;;;;;1.30;1.20;;;18.40;99.90;;;;;;6245905;22;20712;-67
2022/09/10 15:13:17;;;;;;;4.47;1.47;;;18.60;99.90;;;;;;6246176;23;20145;-69
2022/09/10 15:15:45;;;;;;;1.50;1.37;;;18.70;99.90;;;;;;6246214;23;20128;-66
2022/09/10 15:18:16;;;;;;;1.60;1.50;;;18.80;99.90;;;;;;6245995;23;20382;-65
2022/09/10 15:20:41;;;;;;;1.50;1.40;;;18.80;99.90;;;;;;6245937;22;20366;-67
2022/09/10 15:23:07;;;;;;;1.23;1.17;;;18.70;99.90;;;;;;6246795;23;20850;-67
2022/09/10 15:25:42;;;;;;;1.47;1.00;;;18.60;99.90;;;;;;6246179;23;20203;-63
2022/09/10 15:28:08;;;;;;;2.67;1.30;;;18.60;99.90;;;;;;6245516;23;20141;-63
2022/09/10 15:30:35;;;;;;;1.70;1.30;;;18.40;99.90;;;;;;6244800;22;20937;-61
2022/09/10 15:33:05;;;;;;;1.23;1.13;;;18.40;99.90;;;;;;6245430;23;20402;-62
2022/09/10 15:35:31;;;;;;;2.13;1.40;;;18.30;99.90;;;;;;6244634;23;20691;-62
2022/09/10 15:37:57;;;;;;;1.00;1.00;;;18.30;99.90;;;;;;6217515;23;20403;-62
2022/09/10 15:40:23;;;;;;;1.70;1.60;;;18.20;99.90;;;;;;6244472;22;20202;-62
2022/09/10 15:42:51;;;;;;;1.50;1.40;;;18.00;99.90;;;;;;6245212;23;20153;-62
2022/09/10 15:45:16;;;;;;;4.30;1.60;;;17.90;99.90;;;;;;6244460;23;20403;-62
2022/09/10 15:47:42;;;;;;;1.50;1.40;;;17.80;99.90;;;;;;6244424;23;20380;-63
2022/09/10 15:50:10;;;;;;;1.60;1.50;;;17.80;99.90;;;;;;6245520;22;20171;-63
2022/09/10 15:52:36;;;;;;;1.60;1.50;;;17.70;99.90;;;;;;6245291;23;20282;-63
2022/09/10 15:55:02;;;;;;;2.50;1.77;;;17.60;99.90;;;;;;6245345;23;20377;-63
2022/09/10 15:57:29;;;;;;;1.00;1.00;;;17.40;99.90;;;;;;6245217;23;20367;-62
2022/09/10 15:59:55;;;;;;;2.80;1.40;;;17.30;99.90;;;;;;6245396;22;20439;-63
2022/09/10 16:02:21;;;;;;;1.57;1.47;;;17.20;99.90;;;;;;6246074;23;20381;-65
2022/09/10 16:04:47;;;;;;;5.80;1.10;;;17.10;99.90;;;;;;6245568;23;20179;-63
2022/09/10 16:07:13;;;;;;;2.40;1.20;;;16.90;99.90;;;;;;6245947;23;20493;-63
2022/09/10 16:09:39;;;;;;;2.03;1.93;;;16.70;99.90;;;;;;6245540;22;20397;-63
2022/09/10 16:12:05;;;;;;;1.47;1.33;;;16.70;99.90;;;;;;6245743;23;20423;-61
2022/09/10 16:14:33;;;;;;;5.40;3.23;;;16.60;99.90;;;;;;6244956;23;20383;-63
2022/09/10 16:16:59;;;;;;;2.83;2.40;;;16.60;99.90;;;;;;6245548;23;20452;-63
2022/09/10 16:19:25;;;;;;;2.77;2.13;;;16.60;99.90;;;;;;6245293;22;20411;-63
2022/09/10 16:21:51;;;;;;;4.13;1.67;;;16.70;99.90;;;;;;6245817;23;20717;-66
2022/09/10 16:24:17;;;;;;;1.50;1.40;;;16.70;99.90;;;;;;6244858;23;20198;-64
2022/09/10 16:26:44;;;;;;;2.67;1.60;;;16.80;99.90;;;;;;6245560;23;20372;-62
2022/09/10 16:29:15;;;;;;;1.63;1.10;;;16.80;99.90;;;;;;6244819;22;20182;-62
2022/09/10 16:31:41;;;;;;;1.10;1.10;;;16.90;99.90;;;;;;6245271;23;20403;-62
2022/09/10 16:34:10;;;;;;;2.73;1.37;;;16.90;99.90;;;;;;6245825;23;20375;-62
2022/09/10 16:36:37;;;;;;;3.20;1.43;;;17.00;99.90;;;;;;6245701;23;20368;-62
2022/09/10 16:39:10;;;;;;;1.23;1.23;;;17.10;99.90;;;;;;6245480;22;20461;-62
2022/09/10 16:41:37;;;;;;;1.00;1.00;;;17.10;99.90;;;;;;6245754;23;20433;-61
2022/09/10 16:44:03;;;;;;;1.30;1.20;;;17.20;99.90;;;;;;6245516;23;20841;-62
2022/09/10 16:46:28;;;;;;;1.20;1.10;;;17.30;99.90;;;;;;6245762;23;20382;-60
2022/09/10 16:48:55;;;;;;;2.50;1.50;;;17.30;99.90;;;;;;6245303;22;20179;-61
2022/09/10 16:51:23;;;;;;;3.27;1.80;;;17.30;99.90;;;;;;6245599;23;20680;-61
2022/09/10 16:54:01;;;;;;;3.03;2.10;;;17.20;99.90;;;;;;6245833;23;20369;-61
2022/09/10 16:56:28;;;;;;;2.10;1.90;;;17.20;99.90;;;;;;6246058;23;20343;-61
2022/09/10 16:58:54;;;;;;;2.33;1.57;;;17.20;99.90;;;;;;6244949;22;20388;-62
2022/09/10 17:01:20;;;;;;;1.50;1.43;;;17.10;99.90;;;;;;6245353;23;20370;-60
2022/09/10 17:03:50;;;;;;;1.60;1.50;;;17.10;99.90;;;;;;6245456;23;20166;-60
2022/09/10 17:06:19;;;;;;;1.30;1.20;;;17.00;99.90;;;;;;6246018;23;20371;-61
2022/09/10 17:08:45;;;;;;;1.03;1.03;;;17.00;99.90;;;;;;6245033;22;20468;-61
2022/09/10 17:11:13;;;;;;;1.77;1.67;;;17.00;99.90;;;;;;6245374;23;20425;-61
2022/09/10 17:13:39;;;;;;;2.10;1.67;;;17.00;99.90;;;;;;6245762;23;20385;-60
2022/09/10 17:16:32;;;;;;;3.37;2.23;;;17.00;99.90;;;;;;6245898;23;20369;-60
2022/09/10 17:18:59;;;;;;;2.27;1.80;;;16.90;99.90;;;;;;6239611;22;20460;-62
2022/09/10 17:21:27;;;;;;;3.00;2.07;;;16.90;99.90;;;;;;6218861;23;20425;-61
2022/09/10 17:23:53;;;;;;;1.67;1.60;;;16.90;99.90;;;;;;6245796;23;20348;-63
2022/09/10 17:26:19;;;;;;;1.90;1.80;;;16.80;99.90;;;;;;6245292;23;20845;-64
2022/09/10 17:28:54;;;;;;;1.73;1.40;;;16.80;99.90;;;;;;6244649;22;20420;-64
2022/09/10 17:31:21;;;;;;;1.93;1.30;;;16.80;99.90;;;;;;6245490;23;20412;-64
2022/09/10 17:33:46;;;;;;;3.00;1.40;;;16.70;99.90;;;;;;6244977;23;20367;-65
2022/09/10 17:36:12;;;;;;;1.57;1.47;;;16.60;99.90;;;;;;6245578;23;20813;-65
2022/09/10 17:38:38;;;;;;;1.47;1.33;;;16.60;99.90;;;;;;6244481;22;20156;-65
2022/09/10 17:41:04;;;;;;;1.83;1.30;;;16.60;99.90;;;;;;6245460;23;20182;-63
2022/09/10 17:43:35;;;;;;;2.20;1.40;;;16.60;99.90;;;;;;6247774;23;20186;-64
2022/09/10 17:46:09;;;;;;;2.40;2.10;;;16.50;99.90;;;;;;6247633;23;20369;-61
2022/09/10 17:48:36;;;;;;;1.47;1.37;;;16.50;99.90;;;;;;6247270;22;20364;-64
2022/09/10 17:51:04;;;;;;;2.33;1.33;;;16.50;99.90;;;;;;6247569;23;20714;-64
2022/09/10 17:53:30;;;;;;;2.83;2.10;;;16.50;99.90;;;;;;6247423;23;20376;-63
2022/09/10 17:56:03;;;;;;;1.83;1.73;;;16.50;99.90;;;;;;6247356;23;20451;-62
2022/09/10 17:58:32;;;;;;;2.43;1.63;;;16.40;99.90;;;;;;6247180;22;20356;-62
2022/09/10 18:00:59;;;;;;;1.30;1.20;;;16.40;99.90;;;;;;6247026;23;20372;-63
2022/09/10 18:03:25;;;;;;;1.67;1.57;;;16.40;99.90;;;;;;6247397;23;20376;-64
2022/09/10 18:05:50;;;;;;;2.07;1.97;;;16.40;99.90;;;;;;6246932;23;20735;-64
2022/09/10 18:08:16;;;;;;;2.33;1.47;;;16.40;99.90;;;;;;6246792;23;20156;-63
2022/09/10 18:10:42;;;;;;;1.27;1.20;;;16.40;99.90;;;;;;6246815;22;20186;-62
2022/09/10 18:13:08;;;;;;;1.20;1.20;;;16.40;99.90;;;;;;6247060;23;20531;-64
2022/09/10 18:15:40;;;;;;;1.23;1.13;;;16.40;99.90;;;;;;6246680;23;20155;-64
2022/09/10 18:18:08;;;;;;;4.73;1.90;;;16.40;99.90;;;;;;6246794;23;20404;-63
2022/09/10 18:20:33;;;;;;;2.90;2.10;;;16.30;99.90;;;;;;6247033;22;20378;-63
2022/09/10 18:22:59;;;;;;;1.97;1.80;;;16.30;99.90;;;;;;6246965;23;20372;-63
2022/09/10 18:25:29;;;;;;;1.30;1.30;;;16.30;99.90;;;;;;6247017;23;20156;-63
2022/09/10 18:27:56;;;;;;;1.47;1.37;;;16.30;99.90;;;;;;6246302;23;20373;-62
2022/09/10 18:30:22;;;;;;;1.70;1.63;;;16.30;99.90;;;;;;6246814;22;20733;-65
2022/09/10 18:32:47;;;;;;;2.80;2.60;;;16.30;99.90;;;;;;6246972;23;20458;-64
2022/09/10 18:35:13;;;;;;;1.50;1.40;;;16.30;99.90;;;;;;6246800;23;20379;-65
2022/09/10 18:37:39;;;;;;;1.40;1.30;;;16.20;99.90;;;;;;6246597;23;20232;-64
2022/09/10 18:40:06;;;;;;;1.50;1.40;;;16.20;99.90;;;;;;6246232;22;20185;-67
2022/09/10 18:42:33;;;;;;;1.63;1.53;;;16.20;99.90;;;;;;6247047;23;20184;-62
2022/09/10 18:44:58;;;;;;;2.60;1.67;;;16.20;99.90;;;;;;6246815;23;20668;-63
2022/09/10 18:47:24;;;;;;;2.43;1.80;;;16.20;99.90;;;;;;6246344;23;20379;-62
2022/09/10 18:49:50;;;;;;;2.00;1.80;;;16.20;99.90;;;;;;6245807;22;20165;-62
2022/09/10 18:52:16;;;;;;;1.60;1.50;;;16.20;99.90;;;;;;6246146;23;20410;-62
2022/09/10 18:54:42;;;;;;;8.20;1.90;;;16.20;99.90;;;;;;6246449;23;20153;-62
2022/09/10 18:57:08;;;;;;;6.13;2.47;;;16.20;99.90;;;;;;6246560;23;20152;-61
2022/09/10 18:59:34;;;;;;;4.33;2.40;;;16.10;99.90;;;;;;6246102;22;20400;-63
2022/09/10 19:02:00;;;;;;;1.87;1.77;;;16.10;99.90;;;;;;6246664;23;20407;-62
2022/09/10 19:04:28;;;;;;;8.77;2.87;;;16.10;99.90;;;;;;6246691;23;20164;-61
2022/09/10 19:06:55;;;;;;;2.97;1.67;;;16.20;99.90;;;;;;6246838;23;20153;-62
2022/09/10 19:09:23;;;;;;;1.70;1.60;;;16.20;99.90;;;;;;6246201;22;20447;-62
2022/09/10 19:11:51;;;;;;;1.60;1.50;;;16.20;99.90;;;;;;6246462;23;20428;-62
2022/09/10 19:14:31;;;;;;;1.40;1.30;;;16.10;99.90;;;;;;6246707;23;20380;-62
2022/09/10 19:16:58;;;;;;;2.40;1.17;;;16.20;99.90;;;;;;6246576;23;20655;-61
2022/09/10 19:19:26;;;;;;;1.70;1.60;;;16.10;99.90;;;;;;6246220;22;20384;-61
2022/09/10 19:21:55;;;;;;;2.00;1.00;;;16.10;99.90;;;;;;6246841;23;20389;-61
2022/09/10 19:24:25;;;;;;;1.20;1.10;;;16.10;99.90;;;;;;6246316;23;20351;-62
2022/09/10 19:26:51;;;;;;;1.27;1.17;;;16.00;99.90;;;;;;6246246;23;20421;-61
2022/09/10 19:29:17;;;;;;;1.10;1.00;;;16.10;99.90;;;;;;6246189;22;20397;-62
2022/09/10 19:31:45;;;;;;;1.13;1.03;;;16.00;99.90;;;;;;6246164;23;20764;-61
2022/09/10 19:34:12;;;;;;;1.30;1.30;;;16.00;99.90;;;;;;6246703;23;20506;-61
2022/09/10 19:36:38;;;;;;;1.10;1.10;;;16.00;99.90;;;;;;6245218;23;20854;-61
2022/09/10 19:39:07;;;;;;;1.33;1.23;;;16.00;99.90;;;;;;6244357;22;20371;-61
2022/09/10 19:41:34;;;;;;;1.20;1.10;;;16.00;99.90;;;;;;6244541;23;20401;-61
2022/09/10 19:44:01;;;;;;;0.97;0.97;;;15.90;99.90;;;;;;6244744;23;20372;-61
2022/09/10 19:46:27;;;;;;;1.03;1.03;;;16.00;99.90;;;;;;6244705;23;20471;-61
2022/09/10 19:48:58;;;;;;;1.43;1.33;;;16.00;99.90;;;;;;6243946;22;20382;-62
2022/09/10 19:51:26;;;;;;;1.27;1.20;;;16.00;99.90;;;;;;6244843;23;20422;-61
2022/09/10 19:53:52;;;;;;;1.10;1.10;;;16.00;99.90;;;;;;6244896;23;20373;-61
2022/09/10 19:56:21;;;;;;;1.37;1.27;;;15.90;99.90;;;;;;6244528;23;20379;-61
2022/09/10 19:58:49;;;;;;;0.80;0.80;;;15.90;99.90;;;;;;6243970;22;20169;-61
2022/09/10 20:01:16;;;;;;;1.07;0.97;;;15.90;99.90;;;;;;6245058;23;20743;-61
2022/09/10 20:03:43;;;;;;;1.30;1.20;;;15.90;99.90;;;;;;6244958;23;20438;-61
2022/09/10 20:06:10;;;;;;;0.90;0.90;;;15.90;99.90;;;;;;6246244;23;20369;-62
2022/09/10 20:08:36;;;;;;;1.10;1.10;;;15.90;99.90;;;;;;6245502;22;20682;-61
2022/09/10 20:11:07;;;;;;;1.20;1.10;;;16.00;99.90;;;;;;6245706;23;20412;-61
2022/09/10 20:13:35;;;;;;;1.00;1.00;;;16.00;99.90;;;;;;6246041;23;20670;-61
2022/09/10 20:16:03;;;;;;;1.07;1.00;;;16.00;99.90;;;;;;6245671;23;20836;-62
2022/09/10 20:18:30;;;;;;;1.20;1.10;;;15.90;99.90;;;;;;6244838;22;20370;-61
2022/09/10 20:21:13;;;;;;;1.10;1.10;;;16.00;99.90;;;;;;6245898;23;20380;-61
2022/09/10 20:23:40;;;;;;;1.53;1.20;;;16.00;99.90;;;;;;6245935;23;20338;-61
2022/09/10 20:26:21;;;;;;;0.87;0.80;;;16.00;99.90;;;;;;6245389;23;20371;-61
2022/09/10 20:28:52;;;;;;;0.90;0.90;;;16.10;99.90;;;;;;6245445;22;20721;-61
2022/09/10 20:31:19;;;;;;;0.93;0.90;;;16.10;99.90;;;;;;6245669;23;20383;-61
2022/09/10 20:33:45;;;;;;;1.50;1.50;;;16.00;99.90;;;;;;6245308;23;20921;-61
2022/09/10 20:36:16;;;;;;;4.07;1.50;;;16.00;99.90;;;;;;6245536;23;20395;-62
2022/09/10 20:38:42;;;;;;;1.53;1.43;;;16.10;99.90;;;;;;6245950;22;20800;-61
2022/09/10 20:41:09;;;;;;;1.33;1.13;;;16.10;99.90;;;;;;6245444;23;20470;-61
2022/09/10 20:43:34;;;;;;;0.90;0.90;;;16.10;99.90;;;;;;6246421;23;20498;-61
2022/09/10 20:46:01;;;;;;;1.57;1.47;;;16.10;99.90;;;;;;6245755;23;20408;-61
2022/09/10 20:48:29;;;;;;;4.33;3.30;;;16.10;99.90;;;;;;6245205;22;20608;-61
2022/09/10 20:50:59;;;;;;;3.27;1.73;;;16.10;99.90;;;;;;6245561;23;20411;-62
2022/09/10 20:53:26;;;;;;;2.60;1.23;;;16.10;99.90;;;;;;6246269;23;20825;-61
2022/09/10 20:55:59;;;;;;;1.77;1.40;;;16.10;99.90;;;;;;6245779;23;20375;-61
2022/09/10 20:58:25;;;;;;;1.00;1.00;;;16.10;99.90;;;;;;6245500;22;20426;-61
2022/09/10 21:00:51;;;;;;;1.47;0.87;;;16.10;99.90;;;;;;6245960;23;20392;-61
2022/09/10 21:03:16;;;;;;;3.90;1.30;;;16.10;99.90;;;;;;6245233;23;20585;-62
2022/09/10 21:05:47;;;;;;;1.13;1.10;;;16.10;99.90;;;;;;6245746;23;20380;-61
2022/09/10 21:08:13;;;;;;;1.80;1.27;;;16.10;99.90;;;;;;6245572;23;20461;-63
2022/09/10 21:10:38;;;;;;;1.10;1.10;;;16.10;99.90;;;;;;6243848;22;20473;-61
2022/09/10 21:13:04;;;;;;;1.80;0.70;;;16.10;99.90;;;;;;6245120;23;20473;-61
2022/09/10 21:15:30;;;;;;;1.20;1.20;;;16.10;99.90;;;;;;6245895;23;20153;-62
2022/09/10 21:17:57;;;;;;;1.30;1.30;;;16.10;99.90;;;;;;6247350;23;20831;-62
2022/09/10 21:20:22;;;;;;;3.23;1.30;;;16.10;99.90;;;;;;6247849;22;20391;-62
2022/09/10 21:22:49;;;;;;;1.37;1.23;;;16.10;99.90;;;;;;6247638;23;20392;-62
2022/09/10 21:25:14;;;;;;;7.03;5.47;;;16.10;99.90;;;;;;6247617;23;20405;-61
2022/09/10 21:27:41;;;;;;;1.97;1.43;;;16.10;99.90;;;;;;6247395;23;20368;-62
2022/09/10 21:30:07;;;;;;;3.40;2.10;;;16.10;99.90;;;;;;6247472;22;20199;-62
2022/09/10 21:32:33;;;;;;;2.67;1.60;;;16.10;99.90;;;;;;6247610;23;20380;-61
2022/09/10 21:34:59;;;;;;;1.30;1.20;;;16.10;99.90;;;;;;6247449;23;20441;-61
2022/09/10 21:37:25;;;;;;;0.80;0.80;;;16.20;99.90;;;;;;6247378;23;20372;-61
2022/09/10 21:39:51;;;;;;;1.07;1.07;;;16.20;99.90;;;;;;6246766;22;20420;-62
2022/09/10 21:42:16;;;;;;;3.00;1.23;;;16.20;99.90;;;;;;6247625;23;20452;-61
2022/09/10 21:44:42;;;;;;;2.03;1.13;;;16.20;99.90;;;;;;6247224;23;20397;-62
2022/09/10 21:47:09;;;;;;;0.80;0.80;;;16.20;99.90;;;;;;6247295;23;20216;-62
2022/09/10 21:49:35;;;;;;;0.90;0.90;;;16.20;99.90;;;;;;6247212;22;20531;-62
2022/09/10 21:52:02;;;;;;;1.00;0.80;;;16.20;99.90;;;;;;6220194;23;20490;-62
2022/09/10 21:54:27;;;;;;;2.07;1.40;;;16.20;99.90;;;;;;6247611;23;20150;-62
2022/09/10 21:56:54;;;;;;;1.40;1.30;;;16.20;99.90;;;;;;6247571;23;20394;-62
2022/09/10 21:59:20;;;;;;;1.53;0.90;;;16.20;99.90;;;;;;6247142;22;20203;-62
